sensor_id;sensor_type;location;lat;lon;timestamp;temperature;humidity
40374;DHT22;26079;45.958;12.492;2023-04-25T00:00:13;11.30;99.90
40374;DHT22;26079;45.958;12.492;2023-04-25T00:02:39;11.20;99.90
40374;DHT22;26079;45.958;12.492;2023-04-25T00:05:05;11.20;99.90
40374;DHT22;26079;45.958;12.492;2023-04-25T00:07:31;11.00;99.90
40374;DHT22;26079;45.958;12.492;2023-04-25T00:09:58;10.90;99.90
40374;DHT22;26079;45.958;12.492;2023-04-25T00:12:23;10.90;99.90
40374;DHT22;26079;45.958;12.492;2023-04-25T00:14:49;10.90;99.90
40374;DHT22;26079;45.958;12.492;2023-04-25T00:17:16;10.90;99.90
40374;DHT22;26079;45.958;12.492;2023-04-25T00:19:44;10.90;99.90
40374;DHT22;26079;45.958;12.492;2023-04-25T00:22:12;10.80;99.90
40374;DHT22;26079;45.958;12.492;2023-04-25T00:24:38;10.80;99.90
40374;DHT22;26079;45.958;12.492;2023-04-25T00:27:04;10.90;99.90
40374;DHT22;26079;45.958;12.492;2023-04-25T00:29:29;10.80;99.90
40374;DHT22;26079;45.958;12.492;2023-04-25T00:31:55;10.90;99.90
40374;DHT22;26079;45.958;12.492;2023-04-25T00:34:21;11.00;99.90
40374;DHT22;26079;45.958;12.492;2023-04-25T00:36:46;10.90;99.90
40374;DHT22;26079;45.958;12.492;2023-04-25T00:39:12;10.80;99.90
40374;DHT22;26079;45.958;12.492;2023-04-25T00:41:38;10.80;99.90
40374;DHT22;26079;45.958;12.492;2023-04-25T00:44:05;10.90;99.90
40374;DHT22;26079;45.958;12.492;2023-04-25T00:46:32;10.70;99.90
40374;DHT22;26079;45.958;12.492;2023-04-25T00:48:58;10.70;99.90
40374;DHT22;26079;45.958;12.492;2023-04-25T00:51:25;10.60;99.90
40374;DHT22;26079;45.958;12.492;2023-04-25T00:53:52;10.60;99.90
40374;DHT22;26079;45.958;12.492;2023-04-25T00:56:18;10.60;99.90
40374;DHT22;26079;45.958;12.492;2023-04-25T00:58:45;10.50;99.90
40374;DHT22;26079;45.958;12.492;2023-04-25T01:01:11;10.60;99.90
40374;DHT22;26079;45.958;12.492;2023-04-25T01:03:39;10.50;99.90
40374;DHT22;26079;45.958;12.492;2023-04-25T01:06:11;10.50;99.90
40374;DHT22;26079;45.958;12.492;2023-04-25T01:08:38;10.40;99.90
40374;DHT22;26079;45.958;12.492;2023-04-25T01:11:05;10.30;99.90
40374;DHT22;26079;45.958;12.492;2023-04-25T01:13:31;10.30;99.90
40374;DHT22;26079;45.958;12.492;2023-04-25T01:15:58;10.30;99.90
40374;DHT22;26079;45.958;12.492;2023-04-25T01:18:24;10.30;99.90
40374;DHT22;26079;45.958;12.492;2023-04-25T01:20:51;10.40;99.90
40374;DHT22;26079;45.958;12.492;2023-04-25T01:23:18;10.40;99.90
40374;DHT22;26079;45.958;12.492;2023-04-25T01:25:44;10.40;99.90
40374;DHT22;26079;45.958;12.492;2023-04-25T01:28:10;10.40;99.90
40374;DHT22;26079;45.958;12.492;2023-04-25T01:30:36;10.30;99.90
40374;DHT22;26079;45.958;12.492;2023-04-25T01:33:03;10.30;99.90
40374;DHT22;26079;45.958;12.492;2023-04-25T01:35:30;10.40;99.90
40374;DHT22;26079;45.958;12.492;2023-04-25T01:37:57;10.40;99.90
40374;DHT22;26079;45.958;12.492;2023-04-25T01:40:24;10.50;99.90
40374;DHT22;26079;45.958;12.492;2023-04-25T01:42:51;10.50;99.90
40374;DHT22;26079;45.958;12.492;2023-04-25T01:45:17;10.60;99.90
40374;DHT22;26079;45.958;12.492;2023-04-25T01:47:43;10.60;99.90
40374;DHT22;26079;45.958;12.492;2023-04-25T01:50:12;10.60;99.90
40374;DHT22;26079;45.958;12.492;2023-04-25T01:52:38;10.60;99.90
40374;DHT22;26079;45.958;12.492;2023-04-25T01:55:06;10.60;99.90
40374;DHT22;26079;45.958;12.492;2023-04-25T01:57:31;10.70;99.90
40374;DHT22;26079;45.958;12.492;2023-04-25T02:00:00;10.80;99.90
40374;DHT22;26079;45.958;12.492;2023-04-25T02:02:26;10.80;99.90
40374;DHT22;26079;45.958;12.492;2023-04-25T02:04:52;10.90;99.90
40374;DHT22;26079;45.958;12.492;2023-04-25T02:07:17;10.90;99.90
40374;DHT22;26079;45.958;12.492;2023-04-25T02:09:43;11.00;99.90
40374;DHT22;26079;45.958;12.492;2023-04-25T02:12:10;10.90;99.90
40374;DHT22;26079;45.958;12.492;2023-04-25T02:14:36;10.80;99.90
40374;DHT22;26079;45.958;12.492;2023-04-25T02:17:02;10.70;99.90
40374;DHT22;26079;45.958;12.492;2023-04-25T02:19:27;10.60;99.90
40374;DHT22;26079;45.958;12.492;2023-04-25T02:21:53;10.60;99.90
40374;DHT22;26079;45.958;12.492;2023-04-25T02:24:19;10.50;99.90
40374;DHT22;26079;45.958;12.492;2023-04-25T02:26:44;10.40;99.90
40374;DHT22;26079;45.958;12.492;2023-04-25T02:29:12;10.40;99.90
40374;DHT22;26079;45.958;12.492;2023-04-25T02:31:38;10.30;99.90
40374;DHT22;26079;45.958;12.492;2023-04-25T02:34:03;10.10;99.90
40374;DHT22;26079;45.958;12.492;2023-04-25T02:36:30;9.90;99.90
40374;DHT22;26079;45.958;12.492;2023-04-25T02:38:59;9.70;99.90
40374;DHT22;26079;45.958;12.492;2023-04-25T02:41:26;9.70;99.90
40374;DHT22;26079;45.958;12.492;2023-04-25T02:43:51;9.60;99.90
40374;DHT22;26079;45.958;12.492;2023-04-25T02:46:17;9.50;99.90
40374;DHT22;26079;45.958;12.492;2023-04-25T02:48:42;9.50;99.90
40374;DHT22;26079;45.958;12.492;2023-04-25T02:51:09;9.50;99.90
40374;DHT22;26079;45.958;12.492;2023-04-25T02:53:35;9.50;99.90
40374;DHT22;26079;45.958;12.492;2023-04-25T02:56:01;9.60;99.90
40374;DHT22;26079;45.958;12.492;2023-04-25T02:58:27;9.50;99.90
40374;DHT22;26079;45.958;12.492;2023-04-25T03:00:53;9.50;99.90
40374;DHT22;26079;45.958;12.492;2023-04-25T03:03:18;9.50;99.90
40374;DHT22;26079;45.958;12.492;2023-04-25T03:05:50;9.40;99.90
40374;DHT22;26079;45.958;12.492;2023-04-25T03:08:16;9.40;99.90
40374;DHT22;26079;45.958;12.492;2023-04-25T03:10:42;9.40;99.90
40374;DHT22;26079;45.958;12.492;2023-04-25T03:13:08;9.50;99.90
40374;DHT22;26079;45.958;12.492;2023-04-25T03:15:34;9.50;99.90
40374;DHT22;26079;45.958;12.492;2023-04-25T03:18:00;9.50;99.90
40374;DHT22;26079;45.958;12.492;2023-04-25T03:20:25;9.60;99.90
40374;DHT22;26079;45.958;12.492;2023-04-25T03:22:51;9.50;99.90
40374;DHT22;26079;45.958;12.492;2023-04-25T03:25:17;9.60;99.90
40374;DHT22;26079;45.958;12.492;2023-04-25T03:27:42;9.60;99.90
40374;DHT22;26079;45.958;12.492;2023-04-25T03:30:08;9.60;99.90
40374;DHT22;26079;45.958;12.492;2023-04-25T03:32:34;9.70;99.90
40374;DHT22;26079;45.958;12.492;2023-04-25T03:35:00;9.70;99.90
40374;DHT22;26079;45.958;12.492;2023-04-25T03:37:25;9.50;99.90
40374;DHT22;26079;45.958;12.492;2023-04-25T03:39:51;9.40;99.90
40374;DHT22;26079;45.958;12.492;2023-04-25T03:42:17;9.40;99.90
40374;DHT22;26079;45.958;12.492;2023-04-25T03:44:43;9.40;99.90
40374;DHT22;26079;45.958;12.492;2023-04-25T03:47:09;9.40;99.90
40374;DHT22;26079;45.958;12.492;2023-04-25T03:49:35;9.30;99.90
40374;DHT22;26079;45.958;12.492;2023-04-25T03:52:01;9.30;99.90
40374;DHT22;26079;45.958;12.492;2023-04-25T03:54:27;9.20;99.90
40374;DHT22;26079;45.958;12.492;2023-04-25T03:56:53;9.30;99.90
40374;DHT22;26079;45.958;12.492;2023-04-25T03:59:18;9.30;99.90
40374;DHT22;26079;45.958;12.492;2023-04-25T04:01:44;9.30;99.90
40374;DHT22;26079;45.958;12.492;2023-04-25T04:04:10;9.30;99.90
40374;DHT22;26079;45.958;12.492;2023-04-25T04:06:35;9.40;99.90
40374;DHT22;26079;45.958;12.492;2023-04-25T04:09:02;9.50;99.90
40374;DHT22;26079;45.958;12.492;2023-04-25T04:11:27;9.50;99.90
40374;DHT22;26079;45.958;12.492;2023-04-25T04:13:53;9.50;99.90
40374;DHT22;26079;45.958;12.492;2023-04-25T04:16:19;9.50;99.90
40374;DHT22;26079;45.958;12.492;2023-04-25T04:18:45;9.50;99.90
40374;DHT22;26079;45.958;12.492;2023-04-25T04:21:11;9.40;99.90
40374;DHT22;26079;45.958;12.492;2023-04-25T04:23:37;9.30;99.90
40374;DHT22;26079;45.958;12.492;2023-04-25T04:26:03;9.20;99.90
40374;DHT22;26079;45.958;12.492;2023-04-25T04:28:28;9.20;99.90
40374;DHT22;26079;45.958;12.492;2023-04-25T04:30:54;9.30;99.90
40374;DHT22;26079;45.958;12.492;2023-04-25T04:33:20;9.30;99.90
40374;DHT22;26079;45.958;12.492;2023-04-25T04:35:47;9.20;99.90
40374;DHT22;26079;45.958;12.492;2023-04-25T04:38:13;9.10;99.90
40374;DHT22;26079;45.958;12.492;2023-04-25T04:40:41;9.10;99.90
40374;DHT22;26079;45.958;12.492;2023-04-25T04:43:09;9.10;99.90
40374;DHT22;26079;45.958;12.492;2023-04-25T04:45:36;9.10;99.90
40374;DHT22;26079;45.958;12.492;2023-04-25T04:48:02;9.20;99.90
40374;DHT22;26079;45.958;12.492;2023-04-25T04:50:28;9.10;99.90
40374;DHT22;26079;45.958;12.492;2023-04-25T04:52:53;9.10;99.90
40374;DHT22;26079;45.958;12.492;2023-04-25T04:55:20;9.10;99.90
40374;DHT22;26079;45.958;12.492;2023-04-25T04:57:46;9.30;99.90
40374;DHT22;26079;45.958;12.492;2023-04-25T05:00:12;9.60;99.90
40374;DHT22;26079;45.958;12.492;2023-04-25T05:02:38;9.60;99.90
40374;DHT22;26079;45.958;12.492;2023-04-25T05:05:05;9.70;99.90
40374;DHT22;26079;45.958;12.492;2023-04-25T05:07:31;9.90;99.90
40374;DHT22;26079;45.958;12.492;2023-04-25T05:09:56;10.20;99.90
40374;DHT22;26079;45.958;12.492;2023-04-25T05:12:22;10.30;99.90
40374;DHT22;26079;45.958;12.492;2023-04-25T05:14:47;10.50;99.90
40374;DHT22;26079;45.958;12.492;2023-04-25T05:17:13;10.60;99.90
40374;DHT22;26079;45.958;12.492;2023-04-25T05:19:39;10.70;99.90
40374;DHT22;26079;45.958;12.492;2023-04-25T05:22:04;10.80;99.90
40374;DHT22;26079;45.958;12.492;2023-04-25T05:24:30;10.80;99.90
40374;DHT22;26079;45.958;12.492;2023-04-25T05:26:56;10.80;99.90
40374;DHT22;26079;45.958;12.492;2023-04-25T05:29:22;10.80;99.90
40374;DHT22;26079;45.958;12.492;2023-04-25T05:31:47;10.80;99.90
40374;DHT22;26079;45.958;12.492;2023-04-25T05:34:13;10.80;99.90
40374;DHT22;26079;45.958;12.492;2023-04-25T05:36:39;10.90;99.90
40374;DHT22;26079;45.958;12.492;2023-04-25T05:39:05;10.90;99.90
40374;DHT22;26079;45.958;12.492;2023-04-25T05:41:31;11.00;99.90
40374;DHT22;26079;45.958;12.492;2023-04-25T05:43:57;11.00;99.90
40374;DHT22;26079;45.958;12.492;2023-04-25T05:46:22;11.10;99.90
40374;DHT22;26079;45.958;12.492;2023-04-25T05:48:48;11.00;99.90
40374;DHT22;26079;45.958;12.492;2023-04-25T05:51:14;11.00;99.90
40374;DHT22;26079;45.958;12.492;2023-04-25T05:53:39;10.90;99.90
40374;DHT22;26079;45.958;12.492;2023-04-25T05:56:05;10.90;99.90
40374;DHT22;26079;45.958;12.492;2023-04-25T05:58:31;10.90;99.90
40374;DHT22;26079;45.958;12.492;2023-04-25T06:00:56;10.90;99.90
40374;DHT22;26079;45.958;12.492;2023-04-25T06:03:22;10.80;99.90
40374;DHT22;26079;45.958;12.492;2023-04-25T06:05:48;10.80;99.90
40374;DHT22;26079;45.958;12.492;2023-04-25T06:08:13;10.80;99.90
40374;DHT22;26079;45.958;12.492;2023-04-25T06:10:39;10.70;99.90
40374;DHT22;26079;45.958;12.492;2023-04-25T06:13:05;10.70;99.90
40374;DHT22;26079;45.958;12.492;2023-04-25T06:15:31;10.70;99.90
40374;DHT22;26079;45.958;12.492;2023-04-25T06:17:58;10.70;99.90
40374;DHT22;26079;45.958;12.492;2023-04-25T06:20:23;10.80;99.90
40374;DHT22;26079;45.958;12.492;2023-04-25T06:22:50;10.80;99.90
40374;DHT22;26079;45.958;12.492;2023-04-25T06:25:17;10.80;99.90
40374;DHT22;26079;45.958;12.492;2023-04-25T06:27:42;10.80;99.90
40374;DHT22;26079;45.958;12.492;2023-04-25T06:30:09;10.80;99.90
40374;DHT22;26079;45.958;12.492;2023-04-25T06:32:35;10.80;99.90
40374;DHT22;26079;45.958;12.492;2023-04-25T06:35:00;10.80;99.90
40374;DHT22;26079;45.958;12.492;2023-04-25T06:37:26;10.80;99.90
40374;DHT22;26079;45.958;12.492;2023-04-25T06:39:52;10.80;99.90
40374;DHT22;26079;45.958;12.492;2023-04-25T06:42:18;10.90;99.90
40374;DHT22;26079;45.958;12.492;2023-04-25T06:44:43;10.90;99.90
40374;DHT22;26079;45.958;12.492;2023-04-25T06:47:09;11.00;99.90
40374;DHT22;26079;45.958;12.492;2023-04-25T06:49:35;11.00;99.90
40374;DHT22;26079;45.958;12.492;2023-04-25T06:52:00;11.00;99.90
40374;DHT22;26079;45.958;12.492;2023-04-25T06:54:26;11.10;99.90
40374;DHT22;26079;45.958;12.492;2023-04-25T06:56:55;11.10;99.90
40374;DHT22;26079;45.958;12.492;2023-04-25T06:59:20;11.20;99.90
40374;DHT22;26079;45.958;12.492;2023-04-25T07:01:46;11.20;99.90
40374;DHT22;26079;45.958;12.492;2023-04-25T07:04:12;11.20;99.90
40374;DHT22;26079;45.958;12.492;2023-04-25T07:06:37;11.20;99.90
40374;DHT22;26079;45.958;12.492;2023-04-25T07:09:08;11.30;99.90
40374;DHT22;26079;45.958;12.492;2023-04-25T07:11:35;11.20;99.90
40374;DHT22;26079;45.958;12.492;2023-04-25T07:14:01;11.20;99.90
40374;DHT22;26079;45.958;12.492;2023-04-25T07:16:27;11.10;99.90
40374;DHT22;26079;45.958;12.492;2023-04-25T07:18:53;11.10;99.90
40374;DHT22;26079;45.958;12.492;2023-04-25T07:21:18;11.10;99.90
40374;DHT22;26079;45.958;12.492;2023-04-25T07:23:44;11.10;99.90
40374;DHT22;26079;45.958;12.492;2023-04-25T07:26:10;11.10;99.90
40374;DHT22;26079;45.958;12.492;2023-04-25T07:28:35;11.10;99.90
40374;DHT22;26079;45.958;12.492;2023-04-25T07:31:01;11.10;99.90
40374;DHT22;26079;45.958;12.492;2023-04-25T07:33:27;11.10;99.90
40374;DHT22;26079;45.958;12.492;2023-04-25T07:35:53;11.10;99.90
40374;DHT22;26079;45.958;12.492;2023-04-25T07:38:19;11.20;99.90
40374;DHT22;26079;45.958;12.492;2023-04-25T07:40:44;11.30;99.90
40374;DHT22;26079;45.958;12.492;2023-04-25T07:43:10;11.30;99.90
40374;DHT22;26079;45.958;12.492;2023-04-25T07:45:39;11.30;99.90
40374;DHT22;26079;45.958;12.492;2023-04-25T07:48:05;11.40;99.90
40374;DHT22;26079;45.958;12.492;2023-04-25T07:50:31;11.40;99.90
40374;DHT22;26079;45.958;12.492;2023-04-25T07:52:56;11.50;99.90
40374;DHT22;26079;45.958;12.492;2023-04-25T07:55:22;11.50;99.90
40374;DHT22;26079;45.958;12.492;2023-04-25T07:57:47;11.50;99.90
40374;DHT22;26079;45.958;12.492;2023-04-25T08:00:13;11.40;99.90
40374;DHT22;26079;45.958;12.492;2023-04-25T08:02:40;11.60;99.90
40374;DHT22;26079;45.958;12.492;2023-04-25T08:05:06;12.00;99.90
40374;DHT22;26079;45.958;12.492;2023-04-25T08:07:33;12.00;99.90
40374;DHT22;26079;45.958;12.492;2023-04-25T08:10:00;11.80;99.90
40374;DHT22;26079;45.958;12.492;2023-04-25T08:12:25;11.60;99.90
40374;DHT22;26079;45.958;12.492;2023-04-25T08:14:51;11.50;99.90
40374;DHT22;26079;45.958;12.492;2023-04-25T08:17:17;11.50;99.90
40374;DHT22;26079;45.958;12.492;2023-04-25T08:19:42;11.60;99.90
40374;DHT22;26079;45.958;12.492;2023-04-25T08:22:08;11.70;99.90
40374;DHT22;26079;45.958;12.492;2023-04-25T08:24:34;11.70;99.90
40374;DHT22;26079;45.958;12.492;2023-04-25T08:26:59;11.60;99.90
40374;DHT22;26079;45.958;12.492;2023-04-25T08:29:26;11.50;99.90
40374;DHT22;26079;45.958;12.492;2023-04-25T08:31:51;11.60;99.90
40374;DHT22;26079;45.958;12.492;2023-04-25T08:34:18;11.60;99.90
40374;DHT22;26079;45.958;12.492;2023-04-25T08:36:45;11.70;99.90
40374;DHT22;26079;45.958;12.492;2023-04-25T08:39:11;11.70;99.90
40374;DHT22;26079;45.958;12.492;2023-04-25T08:41:37;11.70;99.90
40374;DHT22;26079;45.958;12.492;2023-04-25T08:44:03;11.60;99.90
40374;DHT22;26079;45.958;12.492;2023-04-25T08:46:30;11.70;99.90
40374;DHT22;26079;45.958;12.492;2023-04-25T08:49:00;11.60;99.90
40374;DHT22;26079;45.958;12.492;2023-04-25T08:51:31;11.60;99.90
40374;DHT22;26079;45.958;12.492;2023-04-25T08:54:10;11.60;99.90
40374;DHT22;26079;45.958;12.492;2023-04-25T08:56:38;11.60;99.90
40374;DHT22;26079;45.958;12.492;2023-04-25T08:59:06;11.50;99.90
40374;DHT22;26079;45.958;12.492;2023-04-25T09:01:34;11.40;99.90
40374;DHT22;26079;45.958;12.492;2023-04-25T09:04:01;11.20;99.90
40374;DHT22;26079;45.958;12.492;2023-04-25T09:06:30;11.10;99.90
40374;DHT22;26079;45.958;12.492;2023-04-25T09:09:07;11.00;99.90
40374;DHT22;26079;45.958;12.492;2023-04-25T09:11:34;11.00;99.90
40374;DHT22;26079;45.958;12.492;2023-04-25T09:14:30;11.00;99.90
40374;DHT22;26079;45.958;12.492;2023-04-25T09:21:56;11.10;99.90
40374;DHT22;26079;45.958;12.492;2023-04-25T09:24:42;11.00;99.90
40374;DHT22;26079;45.958;12.492;2023-04-25T09:27:10;11.00;99.90
40374;DHT22;26079;45.958;12.492;2023-04-25T09:29:40;11.00;99.90
40374;DHT22;26079;45.958;12.492;2023-04-25T09:32:20;11.00;99.90
40374;DHT22;26079;45.958;12.492;2023-04-25T09:34:57;11.00;99.90
40374;DHT22;26079;45.958;12.492;2023-04-25T09:37:25;11.00;99.90
40374;DHT22;26079;45.958;12.492;2023-04-25T09:39:57;11.00;99.90
40374;DHT22;26079;45.958;12.492;2023-04-25T09:42:25;11.00;99.90
40374;DHT22;26079;45.958;12.492;2023-04-25T09:44:54;11.00;99.90
40374;DHT22;26079;45.958;12.492;2023-04-25T09:47:22;11.00;99.90
40374;DHT22;26079;45.958;12.492;2023-04-25T09:49:49;11.00;99.90
40374;DHT22;26079;45.958;12.492;2023-04-25T09:52:23;11.00;99.90
40374;DHT22;26079;45.958;12.492;2023-04-25T09:54:50;11.00;99.90
40374;DHT22;26079;45.958;12.492;2023-04-25T09:57:25;10.90;99.90
40374;DHT22;26079;45.958;12.492;2023-04-25T09:59:54;10.90;99.90
40374;DHT22;26079;45.958;12.492;2023-04-25T10:02:26;10.80;99.90
40374;DHT22;26079;45.958;12.492;2023-04-25T10:04:53;10.80;99.90
40374;DHT22;26079;45.958;12.492;2023-04-25T10:07:26;10.80;99.90
40374;DHT22;26079;45.958;12.492;2023-04-25T10:10:03;10.80;99.90
40374;DHT22;26079;45.958;12.492;2023-04-25T10:12:29;10.80;99.90
40374;DHT22;26079;45.958;12.492;2023-04-25T10:14:58;10.80;99.90
40374;DHT22;26079;45.958;12.492;2023-04-25T10:17:24;10.80;99.90
40374;DHT22;26079;45.958;12.492;2023-04-25T10:19:52;10.70;99.90
40374;DHT22;26079;45.958;12.492;2023-04-25T10:22:41;10.80;99.90
40374;DHT22;26079;45.958;12.492;2023-04-25T10:25:08;10.70;99.90
40374;DHT22;26079;45.958;12.492;2023-04-25T10:27:35;10.70;99.90
40374;DHT22;26079;45.958;12.492;2023-04-25T10:32:35;10.70;99.90
40374;DHT22;26079;45.958;12.492;2023-04-25T10:35:14;10.60;99.90
40374;DHT22;26079;45.958;12.492;2023-04-25T10:38:04;10.60;99.90
40374;DHT22;26079;45.958;12.492;2023-04-25T10:40:33;10.60;99.90
40374;DHT22;26079;45.958;12.492;2023-04-25T10:45:56;10.60;99.90
40374;DHT22;26079;45.958;12.492;2023-04-25T10:48:29;10.70;99.90
40374;DHT22;26079;45.958;12.492;2023-04-25T10:51:24;10.70;99.90
40374;DHT22;26079;45.958;12.492;2023-04-25T10:56:38;10.80;99.90
40374;DHT22;26079;45.958;12.492;2023-04-25T10:59:10;10.90;99.90
40374;DHT22;26079;45.958;12.492;2023-04-25T11:04:18;11.20;99.90
40374;DHT22;26079;45.958;12.492;2023-04-25T11:09:24;11.30;99.90
40374;DHT22;26079;45.958;12.492;2023-04-25T11:11:59;11.40;99.90
40374;DHT22;26079;45.958;12.492;2023-04-25T11:14:26;11.50;99.90
40374;DHT22;26079;45.958;12.492;2023-04-25T11:16:56;11.70;99.90
40374;DHT22;26079;45.958;12.492;2023-04-25T11:19:23;11.80;99.80
40374;DHT22;26079;45.958;12.492;2023-04-25T11:21:49;11.90;98.30
40374;DHT22;26079;45.958;12.492;2023-04-25T11:24:16;11.90;96.70
40374;DHT22;26079;45.958;12.492;2023-04-25T11:26:43;12.00;96.50
40374;DHT22;26079;45.958;12.492;2023-04-25T11:29:09;12.10;95.90
40374;DHT22;26079;45.958;12.492;2023-04-25T11:31:35;12.20;92.70
40374;DHT22;26079;45.958;12.492;2023-04-25T11:34:00;12.20;97.30
40374;DHT22;26079;45.958;12.492;2023-04-25T11:36:26;12.30;94.80
40374;DHT22;26079;45.958;12.492;2023-04-25T11:38:53;12.40;90.40
40374;DHT22;26079;45.958;12.492;2023-04-25T11:41:22;12.50;91.60
40374;DHT22;26079;45.958;12.492;2023-04-25T11:43:48;12.70;92.80
40374;DHT22;26079;45.958;12.492;2023-04-25T11:46:15;12.90;92.20
40374;DHT22;26079;45.958;12.492;2023-04-25T11:48:42;13.00;90.90
40374;DHT22;26079;45.958;12.492;2023-04-25T11:51:08;13.20;89.10
40374;DHT22;26079;45.958;12.492;2023-04-25T11:53:34;13.30;83.10
40374;DHT22;26079;45.958;12.492;2023-04-25T11:56:00;13.40;84.20
40374;DHT22;26079;45.958;12.492;2023-04-25T11:58:26;13.30;88.50
40374;DHT22;26079;45.958;12.492;2023-04-25T12:00:52;13.30;83.20
40374;DHT22;26079;45.958;12.492;2023-04-25T12:03:18;13.40;80.90
40374;DHT22;26079;45.958;12.492;2023-04-25T12:05:45;13.50;83.80
40374;DHT22;26079;45.958;12.492;2023-04-25T12:08:15;13.60;86.50
40374;DHT22;26079;45.958;12.492;2023-04-25T12:10:43;13.80;82.30
40374;DHT22;26079;45.958;12.492;2023-04-25T12:13:24;13.90;79.40
40374;DHT22;26079;45.958;12.492;2023-04-25T12:15:51;13.90;79.50
40374;DHT22;26079;45.958;12.492;2023-04-25T12:18:22;14.00;86.30
40374;DHT22;26079;45.958;12.492;2023-04-25T12:20:48;14.10;83.60
40374;DHT22;26079;45.958;12.492;2023-04-25T12:23:14;14.20;84.50
40374;DHT22;26079;45.958;12.492;2023-04-25T12:25:41;14.30;77.90
40374;DHT22;26079;45.958;12.492;2023-04-25T12:31:05;14.60;78.50
40374;DHT22;26079;45.958;12.492;2023-04-25T12:33:35;14.90;77.40
40374;DHT22;26079;45.958;12.492;2023-04-25T12:36:03;15.10;75.70
40374;DHT22;26079;45.958;12.492;2023-04-25T12:38:37;15.10;74.00
40374;DHT22;26079;45.958;12.492;2023-04-25T12:41:03;15.10;76.40
40374;DHT22;26079;45.958;12.492;2023-04-25T12:43:29;15.20;76.40
40374;DHT22;26079;45.958;12.492;2023-04-25T12:45:56;15.20;78.60
40374;DHT22;26079;45.958;12.492;2023-04-25T12:48:22;15.30;78.20
40374;DHT22;26079;45.958;12.492;2023-04-25T12:50:48;15.40;76.40
40374;DHT22;26079;45.958;12.492;2023-04-25T12:53:19;15.30;74.60
40374;DHT22;26079;45.958;12.492;2023-04-25T12:55:45;15.00;75.30
40374;DHT22;26079;45.958;12.492;2023-04-25T12:58:14;14.80;74.60
40374;DHT22;26079;45.958;12.492;2023-04-25T13:00:40;14.60;76.60
40374;DHT22;26079;45.958;12.492;2023-04-25T13:03:08;14.70;79.30
40374;DHT22;26079;45.958;12.492;2023-04-25T13:05:34;14.80;77.00
40374;DHT22;26079;45.958;12.492;2023-04-25T13:07:59;15.10;76.30
40374;DHT22;26079;45.958;12.492;2023-04-25T13:10:25;15.00;73.90
40374;DHT22;26079;45.958;12.492;2023-04-25T13:12:51;14.90;76.40
40374;DHT22;26079;45.958;12.492;2023-04-25T13:15:16;14.90;76.50
40374;DHT22;26079;45.958;12.492;2023-04-25T13:17:42;14.90;76.70
40374;DHT22;26079;45.958;12.492;2023-04-25T13:20:09;14.80;77.20
40374;DHT22;26079;45.958;12.492;2023-04-25T13:22:36;14.80;78.20
40374;DHT22;26079;45.958;12.492;2023-04-25T13:25:03;14.90;79.10
40374;DHT22;26079;45.958;12.492;2023-04-25T13:27:29;15.10;75.90
40374;DHT22;26079;45.958;12.492;2023-04-25T13:29:58;15.10;77.10
40374;DHT22;26079;45.958;12.492;2023-04-25T13:32:23;15.00;78.40
40374;DHT22;26079;45.958;12.492;2023-04-25T13:34:50;15.00;78.10
40374;DHT22;26079;45.958;12.492;2023-04-25T13:37:16;15.10;77.80
40374;DHT22;26079;45.958;12.492;2023-04-25T13:39:42;15.10;77.40
40374;DHT22;26079;45.958;12.492;2023-04-25T13:42:07;15.20;77.60
40374;DHT22;26079;45.958;12.492;2023-04-25T13:44:33;15.20;74.20
40374;DHT22;26079;45.958;12.492;2023-04-25T13:46:58;15.10;75.30
40374;DHT22;26079;45.958;12.492;2023-04-25T13:49:26;15.10;76.30
40374;DHT22;26079;45.958;12.492;2023-04-25T13:51:52;15.10;77.50
40374;DHT22;26079;45.958;12.492;2023-04-25T13:54:36;15.10;78.00
40374;DHT22;26079;45.958;12.492;2023-04-25T13:57:01;15.10;76.80
40374;DHT22;26079;45.958;12.492;2023-04-25T13:59:27;15.10;78.30
40374;DHT22;26079;45.958;12.492;2023-04-25T14:01:53;15.00;77.50
40374;DHT22;26079;45.958;12.492;2023-04-25T14:04:18;15.00;75.90
40374;DHT22;26079;45.958;12.492;2023-04-25T14:06:44;15.10;78.40
40374;DHT22;26079;45.958;12.492;2023-04-25T14:09:11;15.20;77.50
40374;DHT22;26079;45.958;12.492;2023-04-25T14:11:38;15.40;78.60
40374;DHT22;26079;45.958;12.492;2023-04-25T14:14:04;15.50;76.90
40374;DHT22;26079;45.958;12.492;2023-04-25T14:16:31;15.60;77.20
40374;DHT22;26079;45.958;12.492;2023-04-25T14:18:58;15.60;77.00
40374;DHT22;26079;45.958;12.492;2023-04-25T14:21:24;15.80;76.70
40374;DHT22;26079;45.958;12.492;2023-04-25T14:23:50;15.80;73.70
40374;DHT22;26079;45.958;12.492;2023-04-25T14:26:16;15.80;73.80
40374;DHT22;26079;45.958;12.492;2023-04-25T14:28:41;15.90;76.40
40374;DHT22;26079;45.958;12.492;2023-04-25T14:31:07;15.80;75.00
40374;DHT22;26079;45.958;12.492;2023-04-25T14:33:33;15.90;75.60
40374;DHT22;26079;45.958;12.492;2023-04-25T14:35:59;16.00;75.40
40374;DHT22;26079;45.958;12.492;2023-04-25T14:38:25;15.90;72.90
40374;DHT22;26079;45.958;12.492;2023-04-25T14:40:51;15.80;74.10
40374;DHT22;26079;45.958;12.492;2023-04-25T14:43:17;15.70;73.70
40374;DHT22;26079;45.958;12.492;2023-04-25T14:45:43;15.80;75.80
40374;DHT22;26079;45.958;12.492;2023-04-25T14:48:08;15.80;77.70
40374;DHT22;26079;45.958;12.492;2023-04-25T14:50:34;15.90;75.80
40374;DHT22;26079;45.958;12.492;2023-04-25T14:53:00;15.90;75.10
40374;DHT22;26079;45.958;12.492;2023-04-25T14:55:29;15.80;75.40
40374;DHT22;26079;45.958;12.492;2023-04-25T14:57:54;15.70;75.20
40374;DHT22;26079;45.958;12.492;2023-04-25T15:00:21;15.70;76.40
40374;DHT22;26079;45.958;12.492;2023-04-25T15:02:51;15.80;76.60
40374;DHT22;26079;45.958;12.492;2023-04-25T15:05:17;15.80;77.20
40374;DHT22;26079;45.958;12.492;2023-04-25T15:07:43;15.80;77.30
40374;DHT22;26079;45.958;12.492;2023-04-25T15:10:10;15.70;76.30
40374;DHT22;26079;45.958;12.492;2023-04-25T15:12:45;15.70;77.50
40374;DHT22;26079;45.958;12.492;2023-04-25T15:15:11;15.70;77.90
40374;DHT22;26079;45.958;12.492;2023-04-25T15:17:43;15.60;78.40
40374;DHT22;26079;45.958;12.492;2023-04-25T15:20:10;15.60;78.60
40374;DHT22;26079;45.958;12.492;2023-04-25T15:22:38;15.60;80.20
40374;DHT22;26079;45.958;12.492;2023-04-25T15:25:04;15.50;78.30
40374;DHT22;26079;45.958;12.492;2023-04-25T15:27:30;15.50;78.90
40374;DHT22;26079;45.958;12.492;2023-04-25T15:29:56;15.50;80.40
40374;DHT22;26079;45.958;12.492;2023-04-25T15:32:21;15.40;79.40
40374;DHT22;26079;45.958;12.492;2023-04-25T15:34:48;15.30;80.50
40374;DHT22;26079;45.958;12.492;2023-04-25T15:37:15;15.30;79.40